UTA482 URMM-USRR
Flight info
| Callsign | UTA482 |
|---|---|
| Flight time | 3h 41m |
| Altitude | 33000 |
| Route | N0460F350 URILU ITAKA GARDU N996 KODUM Z210 KURUL RIMUN SANIR EKMEN UROMI OTPAT TINRI KULAM RISIR BOMLI |
| Aircraft | B738/M-VGDW/C |
Departure
| Time | 2026-04-28 06:30 |
|---|---|
| Airport | Mineralnye Vody Airport (URMM) |
Arrival
| Time | 2026-04-28 10:11 |
|---|---|
| Airport | Surgut International Airport (USRR) |
| Time | Latitude | Longitude | Altitude | Speed | Heading |
|---|---|---|---|---|---|
| 2026-04-28 06:10 | 44.21716 | 43.09084 | 1076 ft | 0 kts | 212° |
| 2026-04-28 06:20 | 44.21718 | 43.09086 | 1075 ft | 2 kts | 212° |
| 2026-04-28 06:20 | 44.21731 | 43.09097 | 1074 ft | 2 kts | 211° |
| 2026-04-28 06:21 | 44.21743 | 43.09108 | 1073 ft | 2 kts | 212° |
| 2026-04-28 06:21 | 44.21756 | 43.09119 | 1072 ft | 2 kts | 217° |
| 2026-04-28 06:21 | 44.21766 | 43.09135 | 1071 ft | 2 kts | 243° |
| 2026-04-28 06:21 | 44.21771 | 43.09155 | 1071 ft | 2 kts | 265° |
| 2026-04-28 06:22 | 44.21770 | 43.09176 | 1071 ft | 2 kts | 287° |
| 2026-04-28 06:22 | 44.21766 | 43.09189 | 1071 ft | 0 kts | 301° |
| 2026-04-28 06:22 | 44.21762 | 43.09197 | 1071 ft | 0 kts | 303° |
| 2026-04-28 06:24 | 44.21766 | 43.09189 | 1071 ft | 2 kts | 303° |
| 2026-04-28 06:24 | 44.21781 | 43.09158 | 1071 ft | 6 kts | 303° |
| 2026-04-28 06:24 | 44.21811 | 43.09096 | 1073 ft | 9 kts | 308° |
| 2026-04-28 06:24 | 44.21888 | 43.09093 | 1070 ft | 16 kts | 29° |
| 2026-04-28 06:25 | 44.22026 | 43.09082 | 1061 ft | 25 kts | 329° |
| 2026-04-28 06:25 | 44.22187 | 43.08974 | 1059 ft | 25 kts | 333° |
| 2026-04-28 06:25 | 44.22346 | 43.08859 | 1054 ft | 26 kts | 330° |
| 2026-04-28 06:25 | 44.22494 | 43.08696 | 1049 ft | 27 kts | 305° |
| 2026-04-28 06:26 | 44.22604 | 43.08470 | 1045 ft | 28 kts | 304° |
| 2026-04-28 06:26 | 44.22713 | 43.08237 | 1040 ft | 29 kts | 302° |
| 2026-04-28 06:26 | 44.22822 | 43.07995 | 1035 ft | 30 kts | 300° |
| 2026-04-28 06:26 | 44.22933 | 43.07748 | 1030 ft | 29 kts | 303° |
| 2026-04-28 06:27 | 44.23044 | 43.07504 | 1027 ft | 29 kts | 302° |
| 2026-04-28 06:27 | 44.23150 | 43.07263 | 1026 ft | 29 kts | 302° |
| 2026-04-28 06:27 | 44.23255 | 43.07032 | 1027 ft | 25 kts | 302° |
| 2026-04-28 06:27 | 44.23347 | 43.06827 | 1029 ft | 24 kts | 302° |
| 2026-04-28 06:28 | 44.23432 | 43.06638 | 1031 ft | 22 kts | 301° |
| 2026-04-28 06:28 | 44.23510 | 43.06457 | 1032 ft | 21 kts | 300° |
| 2026-04-28 06:28 | 44.23573 | 43.06296 | 1031 ft | 5 kts | 294° |
| 2026-04-28 06:28 | 44.23585 | 43.06300 | 1031 ft | 3 kts | 104° |
| 2026-04-28 06:29 | 44.23572 | 43.06330 | 1031 ft | 7 kts | 122° |
| 2026-04-28 06:29 | 44.23416 | 43.06676 | 1031 ft | 75 kts | 122° |
| 2026-04-28 06:29 | 44.23022 | 43.07547 | 1027 ft | 134 kts | 121° |
| 2026-04-28 06:29 | 44.22436 | 43.08836 | 1079 ft | 176 kts | 121° |
| 2026-04-28 06:30 | 44.21778 | 43.10299 | 1623 ft | 183 kts | 120° |
| 2026-04-28 06:30 | 44.21101 | 43.11860 | 2138 ft | 196 kts | 120° |
| 2026-04-28 06:30 | 44.20387 | 43.13492 | 2774 ft | 200 kts | 120° |
| 2026-04-28 06:30 | 44.19653 | 43.15149 | 3345 ft | 203 kts | 120° |
| 2026-04-28 06:31 | 44.18868 | 43.16868 | 3755 ft | 215 kts | 122° |
| 2026-04-28 06:31 | 44.18015 | 43.18679 | 4079 ft | 232 kts | 122° |
| 2026-04-28 06:31 | 44.17130 | 43.20587 | 4614 ft | 241 kts | 122° |
| 2026-04-28 06:31 | 44.16208 | 43.22602 | 5125 ft | 252 kts | 122° |
| 2026-04-28 06:32 | 44.15249 | 43.24710 | 5709 ft | 260 kts | 122° |
| 2026-04-28 06:32 | 44.14277 | 43.26849 | 6386 ft | 263 kts | 122° |
| 2026-04-28 06:32 | 44.13298 | 43.29003 | 7042 ft | 268 kts | 122° |
| 2026-04-28 06:32 | 44.12383 | 43.31282 | 7595 ft | 275 kts | 113° |
| 2026-04-28 06:33 | 44.12020 | 43.33911 | 8175 ft | 282 kts | 87° |
| 2026-04-28 06:33 | 44.12299 | 43.36606 | 8763 ft | 287 kts | 78° |
| 2026-04-28 06:33 | 44.12723 | 43.39321 | 9371 ft | 291 kts | 76° |
| 2026-04-28 06:33 | 44.13145 | 43.42110 | 9955 ft | 296 kts | 77° |
| 2026-04-28 06:34 | 44.13534 | 43.44956 | 10506 ft | 302 kts | 78° |
| 2026-04-28 06:34 | 44.13914 | 43.47913 | 10788 ft | 319 kts | 79° |
| 2026-04-28 06:34 | 44.14302 | 43.51009 | 11060 ft | 335 kts | 79° |
| 2026-04-28 06:34 | 44.14707 | 43.54273 | 11380 ft | 349 kts | 79° |
| 2026-04-28 06:35 | 44.15131 | 43.57703 | 11651 ft | 365 kts | 79° |
| 2026-04-28 06:35 | 44.15568 | 43.61236 | 11888 ft | 381 kts | 79° |
| 2026-04-28 06:35 | 44.16027 | 43.64938 | 12327 ft | 390 kts | 80° |
| 2026-04-28 06:35 | 44.16497 | 43.68739 | 12838 ft | 397 kts | 81° |
| 2026-04-28 06:36 | 44.16797 | 43.72578 | 13271 ft | 405 kts | 88° |
| 2026-04-28 06:36 | 44.16824 | 43.76522 | 13921 ft | 407 kts | 92° |
| 2026-04-28 06:36 | 44.16721 | 43.80445 | 14543 ft | 411 kts | 94° |
| 2026-04-28 06:36 | 44.16568 | 43.84431 | 15184 ft | 414 kts | 94° |
| 2026-04-28 06:37 | 44.16408 | 43.88425 | 15786 ft | 418 kts | 94° |
| 2026-04-28 06:37 | 44.16256 | 43.92486 | 16397 ft | 422 kts | 94° |
| 2026-04-28 06:37 | 44.16116 | 43.96557 | 16993 ft | 426 kts | 93° |
| 2026-04-28 06:37 | 44.15986 | 44.00705 | 17579 ft | 430 kts | 93° |
| 2026-04-28 06:38 | 44.15861 | 44.04891 | 18157 ft | 434 kts | 93° |
| 2026-04-28 06:38 | 44.15739 | 44.09104 | 18737 ft | 437 kts | 93° |
| 2026-04-28 06:38 | 44.15617 | 44.13348 | 19271 ft | 441 kts | 93° |
| 2026-04-28 06:38 | 44.15494 | 44.17578 | 19791 ft | 445 kts | 93° |
| 2026-04-28 06:39 | 44.15367 | 44.21915 | 20358 ft | 447 kts | 93° |
| 2026-04-28 06:39 | 44.15238 | 44.26219 | 20852 ft | 451 kts | 93° |
| 2026-04-28 06:39 | 44.15105 | 44.30600 | 21363 ft | 455 kts | 93° |
| 2026-04-28 06:39 | 44.14969 | 44.35033 | 21840 ft | 458 kts | 94° |
| 2026-04-28 06:40 | 44.14831 | 44.39465 | 22353 ft | 461 kts | 94° |
| 2026-04-28 06:40 | 44.14691 | 44.43877 | 22761 ft | 465 kts | 94° |
| 2026-04-28 06:40 | 44.14545 | 44.48440 | 23232 ft | 468 kts | 94° |
| 2026-04-28 06:40 | 44.14399 | 44.52922 | 23673 ft | 471 kts | 94° |
| 2026-04-28 06:41 | 44.14249 | 44.57487 | 24166 ft | 473 kts | 94° |
| 2026-04-28 06:41 | 44.14097 | 44.62087 | 24610 ft | 477 kts | 94° |
| 2026-04-28 06:41 | 44.13940 | 44.66747 | 25035 ft | 480 kts | 95° |
| 2026-04-28 06:41 | 44.13782 | 44.71375 | 25462 ft | 483 kts | 95° |
| 2026-04-28 06:42 | 44.13620 | 44.76089 | 25858 ft | 486 kts | 95° |
| 2026-04-28 06:42 | 44.13457 | 44.80769 | 26293 ft | 488 kts | 95° |
| 2026-04-28 06:42 | 44.13292 | 44.85459 | 26700 ft | 491 kts | 95° |
| 2026-04-28 06:42 | 44.13122 | 44.90243 | 27092 ft | 494 kts | 95° |
| 2026-04-28 06:43 | 44.12951 | 44.94980 | 27472 ft | 496 kts | 95° |
| 2026-04-28 06:43 | 44.12775 | 44.99813 | 27844 ft | 499 kts | 95° |
| 2026-04-28 06:43 | 44.12598 | 45.04605 | 28174 ft | 502 kts | 95° |
| 2026-04-28 06:43 | 44.12417 | 45.09462 | 28839 ft | 498 kts | 95° |
| 2026-04-28 06:44 | 44.12240 | 45.14205 | 29418 ft | 495 kts | 95° |
| 2026-04-28 06:44 | 44.12058 | 45.18986 | 29890 ft | 494 kts | 95° |
| 2026-04-28 06:44 | 44.11874 | 45.23768 | 30303 ft | 495 kts | 95° |
| 2026-04-28 06:44 | 44.11689 | 45.28520 | 30720 ft | 494 kts | 95° |
| 2026-04-28 06:45 | 44.11502 | 45.33281 | 31179 ft | 493 kts | 95° |
| 2026-04-28 06:45 | 44.11313 | 45.38021 | 31634 ft | 491 kts | 95° |
| 2026-04-28 06:45 | 44.11124 | 45.42724 | 32052 ft | 489 kts | 95° |
| 2026-04-28 06:45 | 44.10933 | 45.47438 | 32475 ft | 488 kts | 95° |
| 2026-04-28 06:46 | 44.10741 | 45.52123 | 32871 ft | 487 kts | 95° |
| 2026-04-28 06:46 | 44.10545 | 45.56860 | 33289 ft | 485 kts | 95° |
| 2026-04-28 06:46 | 44.10350 | 45.61502 | 33641 ft | 485 kts | 95° |
| 2026-04-28 06:46 | 44.10152 | 45.66180 | 33947 ft | 485 kts | 96° |
| 2026-04-28 06:47 | 44.09952 | 45.70844 | 34334 ft | 483 kts | 96° |
| 2026-04-28 06:47 | 44.09748 | 45.75576 | 34713 ft | 481 kts | 96° |
| 2026-04-28 06:47 | 44.09546 | 45.80228 | 34974 ft | 480 kts | 96° |
| 2026-04-28 06:47 | 44.09341 | 45.84874 | 35211 ft | 480 kts | 96° |
| 2026-04-28 06:48 | 44.09133 | 45.89547 | 35254 ft | 483 kts | 96° |
| 2026-04-28 06:48 | 44.08714 | 45.98825 | 35257 ft | 479 kts | 96° |
| 2026-04-28 06:49 | 44.08290 | 46.08072 | 35257 ft | 480 kts | 96° |
| 2026-04-28 06:49 | 44.07859 | 46.17327 | 35256 ft | 479 kts | 96° |
| 2026-04-28 06:50 | 44.07417 | 46.26637 | 35254 ft | 481 kts | 96° |
| 2026-04-28 06:50 | 44.06969 | 46.35919 | 35255 ft | 481 kts | 96° |
| 2026-04-28 06:51 | 44.06514 | 46.45212 | 35256 ft | 479 kts | 96° |
| 2026-04-28 06:51 | 44.06056 | 46.54417 | 35256 ft | 479 kts | 96° |
| 2026-04-28 06:52 | 44.05589 | 46.63637 | 35256 ft | 478 kts | 96° |
| 2026-04-28 06:52 | 44.05113 | 46.72881 | 35255 ft | 477 kts | 96° |
| 2026-04-28 06:53 | 44.04631 | 46.82082 | 35255 ft | 478 kts | 96° |
| 2026-04-28 06:53 | 44.04142 | 46.91284 | 35255 ft | 477 kts | 96° |
| 2026-04-28 06:54 | 44.03648 | 47.00443 | 35256 ft | 478 kts | 97° |
| 2026-04-28 06:54 | 44.03147 | 47.09596 | 35256 ft | 477 kts | 96° |
| 2026-04-28 06:55 | 44.02636 | 47.18779 | 35255 ft | 478 kts | 96° |
| 2026-04-28 06:55 | 44.02118 | 47.27966 | 35250 ft | 475 kts | 96° |
| 2026-04-28 06:56 | 44.01597 | 47.37098 | 35249 ft | 474 kts | 96° |
| 2026-04-28 06:56 | 44.01067 | 47.46234 | 35245 ft | 474 kts | 96° |
| 2026-04-28 06:57 | 44.00534 | 47.55294 | 35244 ft | 473 kts | 96° |
| 2026-04-28 06:57 | 43.99994 | 47.64357 | 35245 ft | 472 kts | 96° |
| 2026-04-28 06:58 | 43.99446 | 47.73429 | 35239 ft | 472 kts | 97° |
| 2026-04-28 06:58 | 43.98890 | 47.82520 | 35243 ft | 471 kts | 97° |
| 2026-04-28 06:59 | 43.98330 | 47.91545 | 35252 ft | 471 kts | 97° |
| 2026-04-28 06:59 | 43.97764 | 48.00543 | 35252 ft | 470 kts | 97° |
| 2026-04-28 07:00 | 43.97193 | 48.09536 | 35256 ft | 471 kts | 97° |
| 2026-04-28 07:00 | 43.96612 | 48.18575 | 35250 ft | 470 kts | 97° |
| 2026-04-28 07:01 | 43.96027 | 48.27566 | 35247 ft | 469 kts | 97° |
| 2026-04-28 07:01 | 43.95432 | 48.36569 | 35255 ft | 470 kts | 97° |
| 2026-04-28 07:02 | 43.94830 | 48.45562 | 35240 ft | 469 kts | 97° |
| 2026-04-28 07:02 | 43.94221 | 48.54570 | 35236 ft | 469 kts | 97° |
| 2026-04-28 07:03 | 43.93607 | 48.63562 | 35233 ft | 469 kts | 97° |
| 2026-04-28 07:03 | 43.92987 | 48.72507 | 35224 ft | 470 kts | 98° |
| 2026-04-28 07:04 | 43.92359 | 48.81505 | 35202 ft | 470 kts | 98° |
| 2026-04-28 07:04 | 43.91721 | 48.90518 | 35210 ft | 471 kts | 98° |
| 2026-04-28 07:05 | 43.91074 | 48.99552 | 35223 ft | 472 kts | 98° |
| 2026-04-28 07:05 | 43.90420 | 49.08573 | 35222 ft | 471 kts | 98° |
| 2026-04-28 07:06 | 43.89763 | 49.17561 | 35233 ft | 471 kts | 98° |
| 2026-04-28 07:06 | 43.89097 | 49.26576 | 35229 ft | 471 kts | 98° |
| 2026-04-28 07:07 | 43.88422 | 49.35586 | 35231 ft | 473 kts | 98° |
| 2026-04-28 07:07 | 43.88113 | 49.44623 | 35227 ft | 475 kts | 87° |
| 2026-04-28 07:07 | 43.88696 | 49.49120 | 35227 ft | 479 kts | 74° |
| 2026-04-28 07:08 | 43.89945 | 49.53426 | 35230 ft | 480 kts | 63° |
| 2026-04-28 07:08 | 43.93559 | 49.61160 | 35237 ft | 481 kts | 53° |
| 2026-04-28 07:09 | 43.97682 | 49.68436 | 35221 ft | 481 kts | 51° |
| 2026-04-28 07:09 | 44.01922 | 49.75585 | 35223 ft | 482 kts | 50° |
| 2026-04-28 07:10 | 44.06146 | 49.82782 | 35219 ft | 481 kts | 51° |
| 2026-04-28 07:10 | 44.10344 | 49.90046 | 35216 ft | 481 kts | 51° |
| 2026-04-28 07:11 | 44.14507 | 49.97324 | 35213 ft | 481 kts | 51° |
| 2026-04-28 07:11 | 44.18657 | 50.04618 | 35204 ft | 482 kts | 51° |
| 2026-04-28 07:12 | 44.22807 | 50.11939 | 35195 ft | 481 kts | 51° |
| 2026-04-28 07:12 | 44.26930 | 50.19233 | 35189 ft | 482 kts | 51° |
| 2026-04-28 07:13 | 44.31089 | 50.26608 | 35198 ft | 483 kts | 51° |
| 2026-04-28 07:13 | 44.35255 | 50.34015 | 35199 ft | 484 kts | 51° |
| 2026-04-28 07:14 | 44.39395 | 50.41394 | 35193 ft | 484 kts | 51° |
| 2026-04-28 07:14 | 44.43542 | 50.48803 | 35191 ft | 483 kts | 51° |
| 2026-04-28 07:15 | 44.47658 | 50.56176 | 35192 ft | 483 kts | 51° |
| 2026-04-28 07:15 | 44.51804 | 50.63622 | 35185 ft | 483 kts | 51° |
| 2026-04-28 07:16 | 44.55922 | 50.71037 | 35202 ft | 483 kts | 52° |
| 2026-04-28 07:16 | 44.60041 | 50.78476 | 35190 ft | 483 kts | 52° |
| 2026-04-28 07:17 | 44.64154 | 50.85918 | 35201 ft | 482 kts | 52° |
| 2026-04-28 07:17 | 44.68244 | 50.93340 | 35199 ft | 481 kts | 52° |
| 2026-04-28 07:18 | 44.72326 | 51.00768 | 35206 ft | 482 kts | 52° |
| 2026-04-28 07:18 | 44.76424 | 51.08242 | 35203 ft | 482 kts | 52° |
| 2026-04-28 07:19 | 44.80495 | 51.15689 | 35195 ft | 482 kts | 52° |
| 2026-04-28 07:19 | 44.84582 | 51.23182 | 35190 ft | 481 kts | 52° |
| 2026-04-28 07:20 | 44.88670 | 51.30697 | 35184 ft | 483 kts | 52° |
| 2026-04-28 07:20 | 44.92747 | 51.38211 | 35191 ft | 481 kts | 52° |
| 2026-04-28 07:21 | 44.96794 | 51.45688 | 35196 ft | 481 kts | 52° |
| 2026-04-28 07:21 | 45.00851 | 51.53205 | 35180 ft | 483 kts | 52° |
| 2026-04-28 07:22 | 45.06922 | 51.64490 | 35187 ft | 481 kts | 53° |
| 2026-04-28 07:22 | 45.11001 | 51.72098 | 35187 ft | 482 kts | 53° |
| 2026-04-28 07:23 | 45.15028 | 51.79626 | 35184 ft | 482 kts | 53° |
| 2026-04-28 07:23 | 45.19081 | 51.87225 | 35184 ft | 482 kts | 53° |
| 2026-04-28 07:24 | 45.23126 | 51.94831 | 35176 ft | 483 kts | 53° |
| 2026-04-28 07:24 | 45.27163 | 52.02441 | 35182 ft | 482 kts | 53° |
| 2026-04-28 07:25 | 45.31200 | 52.10073 | 35185 ft | 483 kts | 53° |
| 2026-04-28 07:25 | 45.35223 | 52.17695 | 35183 ft | 483 kts | 53° |
| 2026-04-28 07:26 | 45.39243 | 52.25334 | 35175 ft | 483 kts | 53° |
| 2026-04-28 07:26 | 45.43262 | 52.32991 | 35177 ft | 483 kts | 53° |
| 2026-04-28 07:27 | 45.47260 | 52.40629 | 35179 ft | 484 kts | 53° |
| 2026-04-28 07:27 | 45.51299 | 52.48294 | 35174 ft | 483 kts | 52° |
| 2026-04-28 07:28 | 45.55925 | 52.55152 | 35172 ft | 482 kts | 37° |
| 2026-04-28 07:28 | 45.61479 | 52.60594 | 35176 ft | 482 kts | 30° |
| 2026-04-28 07:29 | 45.67181 | 52.65483 | 35171 ft | 480 kts | 30° |
| 2026-04-28 07:29 | 45.72970 | 52.70404 | 35173 ft | 483 kts | 30° |
| 2026-04-28 07:30 | 45.78716 | 52.75403 | 35180 ft | 482 kts | 31° |
| 2026-04-28 07:30 | 45.84413 | 52.80446 | 35184 ft | 482 kts | 31° |
| 2026-04-28 07:31 | 45.90112 | 52.85537 | 35173 ft | 483 kts | 31° |
| 2026-04-28 07:31 | 45.95792 | 52.90633 | 35177 ft | 482 kts | 31° |
| 2026-04-28 07:32 | 46.01494 | 52.95764 | 35173 ft | 483 kts | 31° |
| 2026-04-28 07:32 | 46.07159 | 53.00875 | 35176 ft | 482 kts | 31° |
| 2026-04-28 07:33 | 46.12890 | 53.06054 | 35175 ft | 482 kts | 31° |
| 2026-04-28 07:33 | 46.18582 | 53.11211 | 35172 ft | 484 kts | 31° |
| 2026-04-28 07:34 | 46.24292 | 53.16397 | 35173 ft | 484 kts | 31° |
| 2026-04-28 07:34 | 46.30000 | 53.21595 | 35162 ft | 484 kts | 31° |
| 2026-04-28 07:35 | 46.35679 | 53.26780 | 35160 ft | 484 kts | 31° |
| 2026-04-28 07:35 | 46.41395 | 53.32011 | 35160 ft | 486 kts | 31° |
| 2026-04-28 07:36 | 46.47130 | 53.37271 | 35158 ft | 486 kts | 31° |
| 2026-04-28 07:36 | 46.52799 | 53.42485 | 35162 ft | 486 kts | 31° |
| 2026-04-28 07:37 | 46.58543 | 53.47781 | 35160 ft | 487 kts | 31° |
| 2026-04-28 07:37 | 46.64247 | 53.53054 | 35162 ft | 487 kts | 31° |
| 2026-04-28 07:38 | 46.69944 | 53.58334 | 35159 ft | 487 kts | 31° |
| 2026-04-28 07:38 | 46.75641 | 53.63627 | 35158 ft | 487 kts | 31° |
| 2026-04-28 07:39 | 46.81363 | 53.68956 | 35157 ft | 487 kts | 32° |
| 2026-04-28 07:39 | 46.87110 | 53.74322 | 35155 ft | 488 kts | 32° |
| 2026-04-28 07:40 | 46.92826 | 53.79672 | 35152 ft | 489 kts | 32° |
| 2026-04-28 07:40 | 46.98543 | 53.85039 | 35152 ft | 489 kts | 32° |
| 2026-04-28 07:41 | 47.04274 | 53.90431 | 35153 ft | 489 kts | 32° |
| 2026-04-28 07:41 | 47.09997 | 53.95829 | 35154 ft | 489 kts | 32° |
| 2026-04-28 07:42 | 47.15705 | 54.01225 | 35155 ft | 490 kts | 32° |
| 2026-04-28 07:42 | 47.21457 | 54.06680 | 35150 ft | 491 kts | 32° |
| 2026-04-28 07:43 | 47.27211 | 54.12146 | 35153 ft | 490 kts | 32° |
| 2026-04-28 07:43 | 47.32948 | 54.17613 | 35154 ft | 492 kts | 32° |
| 2026-04-28 07:44 | 47.38689 | 54.23100 | 35155 ft | 492 kts | 32° |
| 2026-04-28 07:44 | 47.44424 | 54.28598 | 35150 ft | 492 kts | 32° |
| 2026-04-28 07:45 | 47.50196 | 54.34148 | 35152 ft | 491 kts | 32° |
| 2026-04-28 07:45 | 47.55934 | 54.39681 | 35153 ft | 494 kts | 32° |
| 2026-04-28 07:46 | 47.61694 | 54.45250 | 35152 ft | 495 kts | 32° |
| 2026-04-28 07:46 | 47.67434 | 54.50813 | 35155 ft | 495 kts | 32° |
| 2026-04-28 07:47 | 47.73219 | 54.56434 | 35153 ft | 497 kts | 32° |
| 2026-04-28 07:47 | 47.79008 | 54.62075 | 35151 ft | 496 kts | 32° |
| 2026-04-28 07:48 | 47.84799 | 54.67731 | 35153 ft | 496 kts | 33° |
| 2026-04-28 07:48 | 47.90567 | 54.73380 | 35151 ft | 497 kts | 33° |
| 2026-04-28 07:49 | 47.96305 | 54.79017 | 35152 ft | 497 kts | 33° |
| 2026-04-28 07:49 | 48.02133 | 54.84755 | 35151 ft | 499 kts | 33° |
| 2026-04-28 07:50 | 48.07924 | 54.90471 | 35152 ft | 498 kts | 33° |
| 2026-04-28 07:50 | 48.13720 | 54.96209 | 35152 ft | 499 kts | 33° |
| 2026-04-28 07:51 | 48.19517 | 55.01961 | 35152 ft | 500 kts | 33° |
| 2026-04-28 07:51 | 48.25303 | 55.07719 | 35149 ft | 501 kts | 33° |
| 2026-04-28 07:52 | 48.31107 | 55.13512 | 35148 ft | 501 kts | 33° |
| 2026-04-28 07:52 | 48.36929 | 55.19342 | 35145 ft | 500 kts | 33° |
| 2026-04-28 07:53 | 48.42690 | 55.25124 | 35143 ft | 500 kts | 33° |
| 2026-04-28 07:53 | 48.48505 | 55.30975 | 35137 ft | 500 kts | 33° |
| 2026-04-28 07:54 | 48.54285 | 55.36808 | 35138 ft | 502 kts | 33° |
| 2026-04-28 07:54 | 48.60083 | 55.42679 | 35134 ft | 501 kts | 33° |
| 2026-04-28 07:55 | 48.65856 | 55.48535 | 35131 ft | 503 kts | 33° |
| 2026-04-28 07:55 | 48.71659 | 55.54434 | 35128 ft | 503 kts | 33° |
| 2026-04-28 07:56 | 48.77478 | 55.60369 | 35129 ft | 503 kts | 33° |
| 2026-04-28 07:56 | 48.83303 | 55.66328 | 35127 ft | 503 kts | 34° |
| 2026-04-28 07:57 | 48.89201 | 55.72084 | 35125 ft | 503 kts | 30° |
| 2026-04-28 07:57 | 48.95287 | 55.77235 | 35119 ft | 503 kts | 28° |
| 2026-04-28 07:58 | 49.01461 | 55.82296 | 35116 ft | 503 kts | 28° |
| 2026-04-28 07:58 | 49.07622 | 55.87436 | 35116 ft | 505 kts | 28° |
| 2026-04-28 07:59 | 49.13744 | 55.92640 | 35114 ft | 505 kts | 29° |
| 2026-04-28 07:59 | 49.19926 | 55.97953 | 35112 ft | 507 kts | 29° |
| 2026-04-28 08:00 | 49.26072 | 56.03263 | 35112 ft | 507 kts | 29° |
| 2026-04-28 08:00 | 49.32177 | 56.08561 | 35110 ft | 507 kts | 29° |
| 2026-04-28 08:01 | 49.38321 | 56.13902 | 35109 ft | 508 kts | 29° |
| 2026-04-28 08:01 | 49.44509 | 56.19299 | 35107 ft | 508 kts | 29° |
| 2026-04-28 08:02 | 49.50638 | 56.24661 | 35106 ft | 509 kts | 29° |
| 2026-04-28 08:02 | 49.56811 | 56.30076 | 35103 ft | 509 kts | 29° |
| 2026-04-28 08:03 | 49.62980 | 56.35503 | 35100 ft | 511 kts | 29° |
| 2026-04-28 08:03 | 49.69139 | 56.40937 | 35101 ft | 509 kts | 29° |
| 2026-04-28 08:04 | 49.75265 | 56.46357 | 35100 ft | 510 kts | 29° |
| 2026-04-28 08:04 | 49.81428 | 56.51822 | 35099 ft | 512 kts | 28° |
| 2026-04-28 08:05 | 49.87647 | 56.57349 | 35098 ft | 512 kts | 29° |
| 2026-04-28 08:05 | 49.93801 | 56.62841 | 35099 ft | 513 kts | 29° |
| 2026-04-28 08:06 | 50.00002 | 56.68393 | 35097 ft | 514 kts | 30° |
| 2026-04-28 08:06 | 50.06192 | 56.73951 | 35094 ft | 515 kts | 30° |
| 2026-04-28 08:07 | 50.12392 | 56.79536 | 35091 ft | 515 kts | 30° |
| 2026-04-28 08:07 | 50.18595 | 56.85139 | 35090 ft | 515 kts | 30° |
| 2026-04-28 08:08 | 50.24845 | 56.90803 | 35093 ft | 516 kts | 30° |
| 2026-04-28 08:08 | 50.31018 | 56.96416 | 35094 ft | 516 kts | 30° |
| 2026-04-28 08:09 | 50.37237 | 57.02085 | 35091 ft | 517 kts | 30° |
| 2026-04-28 08:09 | 50.43438 | 57.07756 | 35094 ft | 518 kts | 29° |
| 2026-04-28 08:10 | 50.49659 | 57.13506 | 35090 ft | 516 kts | 30° |
| 2026-04-28 08:10 | 50.55817 | 57.19307 | 35087 ft | 518 kts | 30° |
| 2026-04-28 08:11 | 50.61961 | 57.25133 | 35087 ft | 517 kts | 30° |
| 2026-04-28 08:11 | 50.68122 | 57.30986 | 35082 ft | 518 kts | 30° |
| 2026-04-28 08:12 | 50.74324 | 57.36883 | 35081 ft | 518 kts | 30° |
| 2026-04-28 08:12 | 50.80480 | 57.42750 | 35079 ft | 519 kts | 30° |
| 2026-04-28 08:13 | 50.86778 | 57.48311 | 35081 ft | 518 kts | 24° |
| 2026-04-28 08:13 | 50.93491 | 57.52553 | 35081 ft | 517 kts | 15° |
| 2026-04-28 08:14 | 51.00328 | 57.55860 | 35082 ft | 514 kts | 12° |
| 2026-04-28 08:14 | 51.07232 | 57.58949 | 35084 ft | 515 kts | 12° |
| 2026-04-28 08:15 | 51.14127 | 57.62072 | 35084 ft | 515 kts | 12° |
| 2026-04-28 08:15 | 51.21005 | 57.65264 | 35081 ft | 516 kts | 13° |
| 2026-04-28 08:16 | 51.27891 | 57.68611 | 35081 ft | 517 kts | 16° |
| 2026-04-28 08:16 | 51.34582 | 57.72908 | 35077 ft | 520 kts | 25° |
| 2026-04-28 08:17 | 51.40936 | 57.78514 | 35075 ft | 520 kts | 30° |
| 2026-04-28 08:17 | 51.47077 | 57.84584 | 35080 ft | 521 kts | 31° |
| 2026-04-28 08:18 | 51.53231 | 57.90779 | 35082 ft | 522 kts | 31° |
| 2026-04-28 08:18 | 51.59406 | 57.96972 | 35080 ft | 521 kts | 31° |
| 2026-04-28 08:19 | 51.65542 | 58.03093 | 35078 ft | 522 kts | 31° |
| 2026-04-28 08:19 | 51.71746 | 58.09275 | 35078 ft | 522 kts | 30° |
| 2026-04-28 08:20 | 51.77903 | 58.15420 | 35077 ft | 523 kts | 30° |
| 2026-04-28 08:20 | 51.84098 | 58.21620 | 35077 ft | 522 kts | 31° |
| 2026-04-28 08:21 | 51.90261 | 58.27810 | 35075 ft | 522 kts | 30° |
| 2026-04-28 08:21 | 51.96424 | 58.34021 | 35075 ft | 521 kts | 30° |
| 2026-04-28 08:22 | 52.02558 | 58.40223 | 35072 ft | 522 kts | 30° |
| 2026-04-28 08:22 | 52.08719 | 58.46471 | 35068 ft | 523 kts | 31° |
| 2026-04-28 08:23 | 52.14869 | 58.52732 | 35069 ft | 522 kts | 31° |
| 2026-04-28 08:23 | 52.21046 | 58.59039 | 35064 ft | 523 kts | 31° |
| 2026-04-28 08:24 | 52.27219 | 58.65362 | 35064 ft | 523 kts | 31° |
| 2026-04-28 08:24 | 52.33369 | 58.71684 | 35063 ft | 522 kts | 32° |
| 2026-04-28 08:25 | 52.39529 | 58.78034 | 35066 ft | 524 kts | 32° |
| 2026-04-28 08:26 | 52.48738 | 58.87575 | 35066 ft | 523 kts | 32° |
| 2026-04-28 08:26 | 52.54888 | 58.93974 | 35064 ft | 524 kts | 31° |
| 2026-04-28 08:27 | 52.61002 | 59.00357 | 35065 ft | 522 kts | 31° |
| 2026-04-28 08:27 | 52.67162 | 59.06806 | 35063 ft | 523 kts | 31° |
| 2026-04-28 08:28 | 52.73277 | 59.13227 | 35064 ft | 522 kts | 31° |
| 2026-04-28 08:28 | 52.79415 | 59.19694 | 35062 ft | 523 kts | 31° |
| 2026-04-28 08:29 | 52.85577 | 59.26212 | 35067 ft | 523 kts | 31° |
| 2026-04-28 08:29 | 52.91674 | 59.32681 | 35065 ft | 524 kts | 31° |
| 2026-04-28 08:30 | 52.97823 | 59.39229 | 35067 ft | 523 kts | 32° |
| 2026-04-28 08:30 | 53.03934 | 59.45757 | 35073 ft | 524 kts | 31° |
| 2026-04-28 08:31 | 53.10061 | 59.52333 | 35065 ft | 524 kts | 31° |
| 2026-04-28 08:31 | 53.16178 | 59.58916 | 35063 ft | 524 kts | 31° |
| 2026-04-28 08:32 | 53.22292 | 59.65513 | 35066 ft | 523 kts | 32° |
| 2026-04-28 08:32 | 53.28431 | 59.72162 | 35062 ft | 523 kts | 32° |
| 2026-04-28 08:33 | 53.34517 | 59.78776 | 35059 ft | 523 kts | 32° |
| 2026-04-28 08:33 | 53.40624 | 59.85433 | 35062 ft | 523 kts | 32° |
| 2026-04-28 08:34 | 53.46737 | 59.92126 | 35061 ft | 525 kts | 32° |
| 2026-04-28 08:34 | 53.52818 | 59.98807 | 35061 ft | 524 kts | 32° |
| 2026-04-28 08:35 | 53.58910 | 60.05523 | 35062 ft | 523 kts | 32° |
| 2026-04-28 08:35 | 53.64972 | 60.12227 | 35057 ft | 523 kts | 32° |
| 2026-04-28 08:36 | 53.71059 | 60.18985 | 35056 ft | 523 kts | 32° |
| 2026-04-28 08:36 | 53.77137 | 60.25757 | 35052 ft | 524 kts | 32° |
| 2026-04-28 08:37 | 53.83229 | 60.32564 | 35057 ft | 522 kts | 32° |
| 2026-04-28 08:37 | 53.89263 | 60.39332 | 35053 ft | 523 kts | 32° |
| 2026-04-28 08:38 | 53.95315 | 60.46352 | 35055 ft | 524 kts | 34° |
| 2026-04-28 08:38 | 54.01126 | 60.53743 | 35055 ft | 523 kts | 37° |
| 2026-04-28 08:39 | 54.06879 | 60.61261 | 35051 ft | 524 kts | 37° |
| 2026-04-28 08:39 | 54.12694 | 60.68849 | 35048 ft | 523 kts | 37° |
| 2026-04-28 08:40 | 54.18464 | 60.76334 | 35036 ft | 522 kts | 37° |
| 2026-04-28 08:40 | 54.24278 | 60.83859 | 35030 ft | 523 kts | 37° |
| 2026-04-28 08:41 | 54.30051 | 60.91347 | 35025 ft | 522 kts | 37° |
| 2026-04-28 08:41 | 54.35820 | 60.98850 | 35020 ft | 522 kts | 37° |
| 2026-04-28 08:42 | 54.41587 | 61.06376 | 35020 ft | 521 kts | 37° |
| 2026-04-28 08:42 | 54.47376 | 61.13959 | 35027 ft | 521 kts | 37° |
| 2026-04-28 08:43 | 54.53114 | 61.21503 | 35018 ft | 520 kts | 37° |
| 2026-04-28 08:43 | 54.58863 | 61.29090 | 35028 ft | 520 kts | 37° |
| 2026-04-28 08:44 | 54.64581 | 61.36665 | 35028 ft | 519 kts | 37° |
| 2026-04-28 08:44 | 54.70317 | 61.44287 | 35031 ft | 518 kts | 37° |
| 2026-04-28 08:45 | 54.76044 | 61.51928 | 35032 ft | 518 kts | 37° |
| 2026-04-28 08:45 | 54.81753 | 61.59572 | 35034 ft | 518 kts | 37° |
| 2026-04-28 08:46 | 54.87433 | 61.67211 | 35036 ft | 516 kts | 38° |
| 2026-04-28 08:46 | 54.93132 | 61.74903 | 35034 ft | 517 kts | 38° |
| 2026-04-28 08:47 | 54.98795 | 61.82566 | 35039 ft | 517 kts | 38° |
| 2026-04-28 08:47 | 55.04513 | 61.90329 | 35041 ft | 514 kts | 38° |
| 2026-04-28 08:48 | 55.10158 | 61.98024 | 35042 ft | 514 kts | 38° |
| 2026-04-28 08:48 | 55.15783 | 62.05723 | 35039 ft | 514 kts | 38° |
| 2026-04-28 08:49 | 55.21408 | 62.13450 | 35038 ft | 512 kts | 38° |
| 2026-04-28 08:49 | 55.27006 | 62.21173 | 35045 ft | 512 kts | 38° |
| 2026-04-28 08:50 | 55.32609 | 62.28935 | 35050 ft | 512 kts | 38° |
| 2026-04-28 08:50 | 55.38197 | 62.36704 | 35045 ft | 512 kts | 38° |
| 2026-04-28 08:51 | 55.43776 | 62.44480 | 35048 ft | 512 kts | 38° |
| 2026-04-28 08:51 | 55.49325 | 62.52242 | 35048 ft | 511 kts | 38° |
| 2026-04-28 08:52 | 55.54893 | 62.60061 | 35051 ft | 511 kts | 38° |
| 2026-04-28 08:52 | 55.60475 | 62.67931 | 35055 ft | 509 kts | 39° |
| 2026-04-28 08:53 | 55.66013 | 62.75767 | 35050 ft | 509 kts | 39° |
| 2026-04-28 08:53 | 55.71536 | 62.83613 | 35052 ft | 506 kts | 39° |
| 2026-04-28 08:54 | 55.77025 | 62.91438 | 35055 ft | 506 kts | 39° |
| 2026-04-28 08:54 | 55.82518 | 62.99296 | 35048 ft | 505 kts | 39° |
| 2026-04-28 08:55 | 55.87971 | 63.07126 | 35056 ft | 505 kts | 39° |
| 2026-04-28 08:55 | 55.93369 | 63.15109 | 35057 ft | 504 kts | 42° |
| 2026-04-28 08:56 | 55.98523 | 63.23660 | 35053 ft | 503 kts | 45° |
| 2026-04-28 08:56 | 56.03567 | 63.32347 | 35053 ft | 502 kts | 45° |
| 2026-04-28 08:57 | 56.08584 | 63.40965 | 35058 ft | 502 kts | 45° |
| 2026-04-28 08:57 | 56.13660 | 63.49631 | 35055 ft | 503 kts | 45° |
| 2026-04-28 08:58 | 56.18725 | 63.58254 | 35060 ft | 502 kts | 44° |
| 2026-04-28 08:58 | 56.23797 | 63.66896 | 35058 ft | 501 kts | 45° |
| 2026-04-28 08:59 | 56.28874 | 63.75573 | 35054 ft | 502 kts | 45° |
| 2026-04-28 08:59 | 56.33918 | 63.84229 | 35052 ft | 503 kts | 45° |
| 2026-04-28 09:00 | 56.38973 | 63.92934 | 35049 ft | 502 kts | 45° |
| 2026-04-28 09:00 | 56.44015 | 64.01650 | 35055 ft | 501 kts | 45° |
| 2026-04-28 09:01 | 56.49041 | 64.10376 | 35056 ft | 501 kts | 45° |
| 2026-04-28 09:01 | 56.54060 | 64.19123 | 35045 ft | 500 kts | 45° |
| 2026-04-28 09:02 | 56.59057 | 64.27863 | 35060 ft | 501 kts | 45° |
| 2026-04-28 09:02 | 56.64064 | 64.36654 | 35070 ft | 502 kts | 45° |
| 2026-04-28 09:03 | 56.69099 | 64.45528 | 35072 ft | 502 kts | 45° |
| 2026-04-28 09:03 | 56.74079 | 64.54339 | 35075 ft | 501 kts | 45° |
| 2026-04-28 09:04 | 56.79076 | 64.63216 | 35076 ft | 502 kts | 45° |
| 2026-04-28 09:04 | 56.84081 | 64.72144 | 35072 ft | 501 kts | 46° |
| 2026-04-28 09:05 | 56.89086 | 64.81110 | 35076 ft | 501 kts | 46° |
| 2026-04-28 09:05 | 56.94046 | 64.90023 | 35081 ft | 500 kts | 46° |
| 2026-04-28 09:06 | 56.98994 | 64.98955 | 35081 ft | 501 kts | 46° |
| 2026-04-28 09:06 | 57.03930 | 65.07900 | 35081 ft | 500 kts | 46° |
| 2026-04-28 09:07 | 57.08879 | 65.16904 | 35078 ft | 500 kts | 46° |
| 2026-04-28 09:07 | 57.13816 | 65.25916 | 35086 ft | 497 kts | 46° |
| 2026-04-28 09:08 | 57.18775 | 65.34948 | 35078 ft | 498 kts | 45° |
| 2026-04-28 09:08 | 57.23841 | 65.43697 | 35076 ft | 499 kts | 43° |
| 2026-04-28 09:09 | 57.28952 | 65.52323 | 35077 ft | 498 kts | 43° |
| 2026-04-28 09:09 | 57.34055 | 65.60989 | 35079 ft | 496 kts | 43° |
| 2026-04-28 09:10 | 57.39111 | 65.69663 | 35074 ft | 495 kts | 44° |
| 2026-04-28 09:10 | 57.44139 | 65.78348 | 35078 ft | 494 kts | 44° |
| 2026-04-28 09:11 | 57.49156 | 65.87068 | 35079 ft | 494 kts | 44° |
| 2026-04-28 09:11 | 57.54170 | 65.95828 | 35074 ft | 494 kts | 44° |
| 2026-04-28 09:12 | 57.59181 | 66.04621 | 35078 ft | 494 kts | 44° |
| 2026-04-28 09:12 | 57.64171 | 66.13409 | 35084 ft | 494 kts | 44° |
| 2026-04-28 09:13 | 57.69169 | 66.22242 | 35084 ft | 494 kts | 44° |
| 2026-04-28 09:13 | 57.74167 | 66.31109 | 35087 ft | 493 kts | 44° |
| 2026-04-28 09:14 | 57.79155 | 66.39996 | 35083 ft | 494 kts | 44° |
| 2026-04-28 09:14 | 57.84117 | 66.48872 | 35089 ft | 492 kts | 44° |
| 2026-04-28 09:15 | 57.89040 | 66.57719 | 35088 ft | 491 kts | 44° |
| 2026-04-28 09:15 | 57.93995 | 66.66651 | 35089 ft | 491 kts | 45° |
| 2026-04-28 09:16 | 57.98896 | 66.75520 | 35083 ft | 491 kts | 45° |
| 2026-04-28 09:16 | 58.03812 | 66.84446 | 35084 ft | 490 kts | 45° |
| 2026-04-28 09:17 | 58.08453 | 66.93932 | 35086 ft | 490 kts | 51° |
| 2026-04-28 09:17 | 58.12731 | 67.03995 | 35095 ft | 488 kts | 53° |
| 2026-04-28 09:18 | 58.16902 | 67.14077 | 35104 ft | 489 kts | 53° |
| 2026-04-28 09:18 | 58.21110 | 67.24204 | 35095 ft | 489 kts | 52° |
| 2026-04-28 09:19 | 58.25344 | 67.34327 | 35098 ft | 488 kts | 52° |
| 2026-04-28 09:19 | 58.29566 | 67.44402 | 35095 ft | 487 kts | 52° |
| 2026-04-28 09:20 | 58.33798 | 67.54514 | 35095 ft | 487 kts | 52° |
| 2026-04-28 09:20 | 58.38015 | 67.64627 | 35100 ft | 488 kts | 52° |
| 2026-04-28 09:21 | 58.42250 | 67.74824 | 35100 ft | 488 kts | 52° |
| 2026-04-28 09:21 | 58.46455 | 67.84995 | 35101 ft | 487 kts | 52° |
| 2026-04-28 09:22 | 58.50646 | 67.95173 | 35107 ft | 489 kts | 52° |
| 2026-04-28 09:22 | 58.54851 | 68.05431 | 35115 ft | 488 kts | 52° |
| 2026-04-28 09:23 | 58.59038 | 68.15687 | 35115 ft | 487 kts | 52° |
| 2026-04-28 09:23 | 58.63179 | 68.25874 | 35119 ft | 487 kts | 52° |
| 2026-04-28 09:24 | 58.67355 | 68.36184 | 35117 ft | 487 kts | 52° |
| 2026-04-28 09:24 | 58.71492 | 68.46452 | 35118 ft | 486 kts | 52° |
| 2026-04-28 09:25 | 58.75623 | 68.56754 | 35115 ft | 486 kts | 52° |
| 2026-04-28 09:25 | 58.79739 | 68.67062 | 35122 ft | 486 kts | 52° |
| 2026-04-28 09:26 | 58.83864 | 68.77432 | 35125 ft | 485 kts | 52° |
| 2026-04-28 09:26 | 58.87977 | 68.87821 | 35125 ft | 486 kts | 53° |
| 2026-04-28 09:27 | 58.94123 | 69.03435 | 35134 ft | 486 kts | 52° |
| 2026-04-28 09:27 | 58.98214 | 69.13886 | 35137 ft | 485 kts | 52° |
| 2026-04-28 09:28 | 59.02276 | 69.24304 | 35136 ft | 484 kts | 52° |
| 2026-04-28 09:28 | 59.06326 | 69.34734 | 35138 ft | 483 kts | 52° |
| 2026-04-28 09:29 | 59.10349 | 69.45142 | 35140 ft | 482 kts | 52° |
| 2026-04-28 09:29 | 59.14383 | 69.55627 | 35137 ft | 483 kts | 52° |
| 2026-04-28 09:30 | 59.18386 | 69.66077 | 35143 ft | 482 kts | 53° |
| 2026-04-28 09:30 | 59.22413 | 69.76631 | 35143 ft | 483 kts | 53° |
| 2026-04-28 09:31 | 59.26416 | 69.87176 | 35147 ft | 482 kts | 53° |
| 2026-04-28 09:31 | 59.30397 | 69.97710 | 35150 ft | 482 kts | 53° |
| 2026-04-28 09:32 | 59.34395 | 70.08334 | 35148 ft | 482 kts | 52° |
| 2026-04-28 09:32 | 59.38349 | 70.18889 | 35145 ft | 482 kts | 52° |
| 2026-04-28 09:33 | 59.42310 | 70.29510 | 35152 ft | 481 kts | 52° |
| 2026-04-28 09:33 | 59.46367 | 70.39853 | 35150 ft | 480 kts | 47° |
| 2026-04-28 09:34 | 59.51072 | 70.49123 | 35153 ft | 478 kts | 39° |
| 2026-04-28 09:34 | 59.56071 | 70.57759 | 35153 ft | 478 kts | 38° |
| 2026-04-28 09:35 | 59.61113 | 70.66297 | 35153 ft | 478 kts | 38° |
| 2026-04-28 09:35 | 59.66134 | 70.74919 | 35158 ft | 477 kts | 38° |
| 2026-04-28 09:36 | 59.71113 | 70.83589 | 35153 ft | 478 kts | 39° |
| 2026-04-28 09:36 | 59.76088 | 70.92339 | 35156 ft | 479 kts | 39° |
| 2026-04-28 09:37 | 59.81042 | 71.01113 | 35159 ft | 477 kts | 39° |
| 2026-04-28 09:37 | 59.85972 | 71.09883 | 35158 ft | 476 kts | 39° |
| 2026-04-28 09:38 | 59.90925 | 71.18722 | 35159 ft | 477 kts | 38° |
| 2026-04-28 09:38 | 59.95803 | 71.27465 | 35045 ft | 472 kts | 38° |
| 2026-04-28 09:39 | 59.98240 | 71.31854 | 34687 ft | 466 kts | 38° |
| 2026-04-28 09:39 | 60.00639 | 71.36180 | 34113 ft | 467 kts | 38° |
| 2026-04-28 09:39 | 60.03055 | 71.40543 | 33415 ft | 468 kts | 38° |
| 2026-04-28 09:39 | 60.05455 | 71.44884 | 32690 ft | 469 kts | 38° |
| 2026-04-28 09:40 | 60.07866 | 71.49254 | 31962 ft | 470 kts | 38° |
| 2026-04-28 09:40 | 60.10284 | 71.53648 | 31411 ft | 467 kts | 38° |
| 2026-04-28 09:40 | 60.12678 | 71.58010 | 30845 ft | 464 kts | 38° |
| 2026-04-28 09:40 | 60.15046 | 71.62331 | 30258 ft | 461 kts | 38° |
| 2026-04-28 09:41 | 60.17403 | 71.66641 | 29676 ft | 458 kts | 39° |
| 2026-04-28 09:41 | 60.19769 | 71.70979 | 29082 ft | 454 kts | 39° |
| 2026-04-28 09:41 | 60.22069 | 71.75205 | 28504 ft | 451 kts | 39° |
| 2026-04-28 09:41 | 60.24383 | 71.79463 | 27927 ft | 448 kts | 39° |
| 2026-04-28 09:42 | 60.26684 | 71.83701 | 27347 ft | 445 kts | 39° |
| 2026-04-28 09:42 | 60.28931 | 71.87848 | 26772 ft | 442 kts | 39° |
| 2026-04-28 09:42 | 60.31186 | 71.92015 | 26201 ft | 438 kts | 39° |
| 2026-04-28 09:42 | 60.33427 | 71.96165 | 25623 ft | 435 kts | 40° |
| 2026-04-28 09:43 | 60.35640 | 72.00272 | 25053 ft | 432 kts | 40° |
| 2026-04-28 09:43 | 60.37837 | 72.04357 | 24481 ft | 430 kts | 40° |
| 2026-04-28 09:43 | 60.40044 | 72.08471 | 23901 ft | 427 kts | 40° |
| 2026-04-28 09:43 | 60.42184 | 72.12465 | 23349 ft | 424 kts | 40° |
| 2026-04-28 09:44 | 60.44360 | 72.16537 | 22775 ft | 421 kts | 40° |
| 2026-04-28 09:44 | 60.46479 | 72.20511 | 22214 ft | 419 kts | 40° |
| 2026-04-28 09:44 | 60.48607 | 72.24508 | 21658 ft | 416 kts | 40° |
| 2026-04-28 09:44 | 60.50706 | 72.28458 | 21094 ft | 413 kts | 40° |
| 2026-04-28 09:45 | 60.52804 | 72.32414 | 20523 ft | 411 kts | 40° |
| 2026-04-28 09:45 | 60.54891 | 72.36356 | 19964 ft | 408 kts | 40° |
| 2026-04-28 09:45 | 60.56969 | 72.40286 | 19401 ft | 405 kts | 40° |
| 2026-04-28 09:45 | 60.59021 | 72.44177 | 18848 ft | 402 kts | 40° |
| 2026-04-28 09:46 | 60.61046 | 72.48024 | 18291 ft | 400 kts | 40° |
| 2026-04-28 09:46 | 60.63048 | 72.51837 | 17743 ft | 397 kts | 40° |
| 2026-04-28 09:46 | 60.65053 | 72.55660 | 17196 ft | 395 kts | 40° |
| 2026-04-28 09:46 | 60.67061 | 72.59495 | 16629 ft | 393 kts | 41° |
| 2026-04-28 09:47 | 60.69027 | 72.63261 | 16085 ft | 391 kts | 41° |
| 2026-04-28 09:47 | 60.71010 | 72.67064 | 15518 ft | 389 kts | 42° |
| 2026-04-28 09:47 | 60.72974 | 72.70836 | 14966 ft | 387 kts | 42° |
| 2026-04-28 09:47 | 60.74917 | 72.74575 | 14409 ft | 384 kts | 42° |
| 2026-04-28 09:48 | 60.76873 | 72.78333 | 13816 ft | 384 kts | 42° |
| 2026-04-28 09:48 | 60.78811 | 72.82037 | 13270 ft | 382 kts | 42° |
| 2026-04-28 09:48 | 60.80729 | 72.85699 | 12716 ft | 380 kts | 42° |
| 2026-04-28 09:48 | 60.82660 | 72.89388 | 12163 ft | 378 kts | 42° |
| 2026-04-28 09:49 | 60.84570 | 72.93044 | 11616 ft | 376 kts | 42° |
| 2026-04-28 09:49 | 60.86483 | 72.96714 | 11064 ft | 374 kts | 42° |
| 2026-04-28 09:49 | 60.88364 | 73.00327 | 10630 ft | 368 kts | 42° |
| 2026-04-28 09:49 | 60.90186 | 73.03834 | 10455 ft | 355 kts | 42° |
| 2026-04-28 09:50 | 60.91965 | 73.07266 | 10341 ft | 342 kts | 42° |
| 2026-04-28 09:50 | 60.93661 | 73.10541 | 10055 ft | 335 kts | 42° |
| 2026-04-28 09:50 | 60.95348 | 73.13804 | 9631 ft | 334 kts | 42° |
| 2026-04-28 09:50 | 60.97052 | 73.17100 | 9201 ft | 333 kts | 42° |
| 2026-04-28 09:51 | 60.98732 | 73.20355 | 8796 ft | 330 kts | 42° |
| 2026-04-28 09:51 | 61.00391 | 73.23583 | 8418 ft | 328 kts | 42° |
| 2026-04-28 09:51 | 61.02032 | 73.26780 | 8006 ft | 325 kts | 43° |
| 2026-04-28 09:51 | 61.03662 | 73.29958 | 7640 ft | 323 kts | 42° |
| 2026-04-28 09:52 | 61.05291 | 73.33143 | 7210 ft | 321 kts | 42° |
| 2026-04-28 09:52 | 61.06892 | 73.36276 | 6850 ft | 318 kts | 42° |
| 2026-04-28 09:52 | 61.08489 | 73.39409 | 6448 ft | 316 kts | 42° |
| 2026-04-28 09:52 | 61.10060 | 73.42490 | 6085 ft | 314 kts | 42° |
| 2026-04-28 09:53 | 61.11639 | 73.45592 | 5685 ft | 312 kts | 43° |
| 2026-04-28 09:53 | 61.13150 | 73.48565 | 5325 ft | 310 kts | 43° |
| 2026-04-28 09:53 | 61.14707 | 73.51632 | 4965 ft | 308 kts | 43° |
| 2026-04-28 09:53 | 61.16255 | 73.54682 | 4541 ft | 307 kts | 43° |
| 2026-04-28 09:54 | 61.17785 | 73.57705 | 4164 ft | 305 kts | 43° |
| 2026-04-28 09:54 | 61.19329 | 73.60768 | 3710 ft | 307 kts | 44° |
| 2026-04-28 09:54 | 61.20866 | 73.63827 | 3190 ft | 311 kts | 44° |
| 2026-04-28 09:54 | 61.22420 | 73.66918 | 2779 ft | 309 kts | 45° |
| 2026-04-28 09:55 | 61.23955 | 73.69974 | 2434 ft | 304 kts | 45° |
| 2026-04-28 09:55 | 61.25485 | 73.72942 | 2338 ft | 292 kts | 42° |
| 2026-04-28 09:55 | 61.27128 | 73.75301 | 2259 ft | 279 kts | 25° |
| 2026-04-28 09:55 | 61.28958 | 73.76096 | 2181 ft | 264 kts | 353° |
| 2026-04-28 09:56 | 61.30633 | 73.75054 | 2113 ft | 246 kts | 327° |
| 2026-04-28 09:56 | 61.31994 | 73.73051 | 1956 ft | 235 kts | 314° |
| 2026-04-28 09:56 | 61.33149 | 73.70744 | 1775 ft | 226 kts | 309° |
| 2026-04-28 09:56 | 61.34121 | 73.68283 | 1551 ft | 214 kts | 296° |
| 2026-04-28 09:57 | 61.34546 | 73.65504 | 1497 ft | 189 kts | 267° |
| 2026-04-28 09:57 | 61.34504 | 73.62935 | 1504 ft | 168 kts | 261° |
| 2026-04-28 09:57 | 61.34455 | 73.60609 | 1509 ft | 157 kts | 260° |
| 2026-04-28 09:57 | 61.34414 | 73.58347 | 1502 ft | 154 kts | 263° |
| 2026-04-28 09:58 | 61.34422 | 73.56094 | 1503 ft | 154 kts | 264° |
| 2026-04-28 09:58 | 61.34410 | 73.53796 | 1454 ft | 162 kts | 263° |
| 2026-04-28 09:58 | 61.34402 | 73.51476 | 1239 ft | 156 kts | 267° |
| 2026-04-28 09:58 | 61.34470 | 73.49341 | 1004 ft | 146 kts | 267° |
| 2026-04-28 09:59 | 61.34473 | 73.47259 | 717 ft | 140 kts | 262° |
| 2026-04-28 09:59 | 61.34440 | 73.45199 | 435 ft | 144 kts | 263° |
| 2026-04-28 09:59 | 61.34392 | 73.43113 | 219 ft | 143 kts | 265° |
| 2026-04-28 09:59 | 61.34396 | 73.41046 | 34 ft | 143 kts | 266° |
| 2026-04-28 10:00 | 61.34400 | 73.38958 | 200 ft | 144 kts | 267° |
| 2026-04-28 10:00 | 61.34391 | 73.37026 | 774 ft | 138 kts | 262° |
| 2026-04-28 10:00 | 61.34433 | 73.34988 | 1220 ft | 145 kts | 275° |
| 2026-04-28 10:00 | 61.34934 | 73.32985 | 1510 ft | 174 kts | 306° |
| 2026-04-28 10:01 | 61.36027 | 73.31702 | 1987 ft | 193 kts | 344° |
| 2026-04-28 10:01 | 61.37376 | 73.32084 | 2532 ft | 208 kts | 23° |
| 2026-04-28 10:01 | 61.38549 | 73.33902 | 2782 ft | 217 kts | 47° |
| 2026-04-28 10:01 | 61.39508 | 73.36369 | 2855 ft | 219 kts | 57° |
| 2026-04-28 10:02 | 61.40394 | 73.39111 | 2563 ft | 238 kts | 59° |
| 2026-04-28 10:02 | 61.41295 | 73.41914 | 2633 ft | 223 kts | 58° |
| 2026-04-28 10:02 | 61.42123 | 73.44600 | 2433 ft | 217 kts | 62° |
| 2026-04-28 10:02 | 61.42871 | 73.47272 | 2203 ft | 213 kts | 65° |
| 2026-04-28 10:03 | 61.43555 | 73.49960 | 2013 ft | 207 kts | 65° |
| 2026-04-28 10:03 | 61.44223 | 73.52605 | 1740 ft | 207 kts | 66° |
| 2026-04-28 10:03 | 61.44807 | 73.55287 | 1629 ft | 194 kts | 73° |
| 2026-04-28 10:03 | 61.45231 | 73.57875 | 1492 ft | 186 kts | 79° |
| 2026-04-28 10:04 | 61.45499 | 73.60431 | 1390 ft | 177 kts | 85° |
| 2026-04-28 10:04 | 61.45632 | 73.62982 | 1454 ft | 174 kts | 91° |
| 2026-04-28 10:04 | 61.45712 | 73.65557 | 1671 ft | 182 kts | 96° |
| 2026-04-28 10:04 | 61.45571 | 73.68143 | 1625 ft | 174 kts | 113° |
| 2026-04-28 10:05 | 61.45080 | 73.70348 | 1473 ft | 165 kts | 129° |
| 2026-04-28 10:05 | 61.44448 | 73.72291 | 1460 ft | 161 kts | 134° |
| 2026-04-28 10:05 | 61.43670 | 73.74020 | 1533 ft | 161 kts | 147° |
| 2026-04-28 10:05 | 61.42776 | 73.75291 | 1761 ft | 160 kts | 155° |
| 2026-04-28 10:06 | 61.41780 | 73.76467 | 1640 ft | 166 kts | 158° |
| 2026-04-28 10:06 | 61.40742 | 73.77398 | 1437 ft | 160 kts | 169° |
| 2026-04-28 10:06 | 61.39673 | 73.77428 | 1364 ft | 153 kts | 198° |
| 2026-04-28 10:06 | 61.38745 | 73.76354 | 1249 ft | 155 kts | 215° |
| 2026-04-28 10:07 | 61.37913 | 73.74907 | 1228 ft | 153 kts | 222° |
| 2026-04-28 10:07 | 61.37179 | 73.73373 | 1612 ft | 148 kts | 223° |
| 2026-04-28 10:07 | 61.36481 | 73.71795 | 2053 ft | 152 kts | 225° |
| 2026-04-28 10:07 | 61.35767 | 73.70155 | 2072 ft | 154 kts | 226° |
| 2026-04-28 10:08 | 61.35177 | 73.68358 | 1953 ft | 150 kts | 239° |
| 2026-04-28 10:08 | 61.34864 | 73.66322 | 1726 ft | 143 kts | 248° |
| 2026-04-28 10:08 | 61.34618 | 73.64422 | 1733 ft | 128 kts | 249° |
| 2026-04-28 10:08 | 61.34417 | 73.62521 | 1917 ft | 144 kts | 255° |
| 2026-04-28 10:09 | 61.34392 | 73.60426 | 1808 ft | 150 kts | 266° |
| 2026-04-28 10:09 | 61.34471 | 73.58257 | 1557 ft | 147 kts | 265° |
| 2026-04-28 10:09 | 61.34450 | 73.56119 | 1222 ft | 146 kts | 260° |
| 2026-04-28 10:09 | 61.34395 | 73.54037 | 937 ft | 144 kts | 264° |
| 2026-04-28 10:10 | 61.34422 | 73.51964 | 821 ft | 144 kts | 268° |
| 2026-04-28 10:10 | 61.34443 | 73.49860 | 702 ft | 148 kts | 263° |
| 2026-04-28 10:10 | 61.34398 | 73.47692 | 622 ft | 152 kts | 264° |
| 2026-04-28 10:10 | 61.34411 | 73.45441 | 368 ft | 157 kts | 266° |
| 2026-04-28 10:11 | 61.34405 | 73.43170 | 136 ft | 158 kts | 266° |
| 2026-04-28 10:11 | 61.34395 | 73.40959 | 10 ft | 142 kts | 267° |
| 2026-04-28 10:11 | 61.34382 | 73.39375 | 9 ft | 76 kts | 270° |
| 2026-04-28 10:11 | 61.34387 | 73.38694 | 9 ft | 16 kts | 270° |
| 2026-04-28 10:12 | 61.34385 | 73.38477 | 9 ft | 15 kts | 268° |
| 2026-04-28 10:12 | 61.34382 | 73.38263 | 9 ft | 14 kts | 269° |
| 2026-04-28 10:12 | 61.34367 | 73.38057 | 9 ft | 13 kts | 231° |
| 2026-04-28 10:12 | 61.34279 | 73.38045 | 9 ft | 12 kts | 141° |
| 2026-04-28 10:13 | 61.34217 | 73.38170 | 9 ft | 12 kts | 139° |
| 2026-04-28 10:13 | 61.34168 | 73.38303 | 9 ft | 11 kts | 92° |
| 2026-04-28 10:13 | 61.34172 | 73.38474 | 9 ft | 13 kts | 89° |
| 2026-04-28 10:13 | 61.34170 | 73.38721 | 9 ft | 18 kts | 94° |
| 2026-04-28 10:14 | 61.34166 | 73.38982 | 9 ft | 18 kts | 92° |
| 2026-04-28 10:14 | 61.34177 | 73.39244 | 9 ft | 17 kts | 86° |
| 2026-04-28 10:14 | 61.34176 | 73.39503 | 9 ft | 17 kts | 92° |
| 2026-04-28 10:14 | 61.34176 | 73.39758 | 9 ft | 17 kts | 90° |
| 2026-04-28 10:15 | 61.34175 | 73.40009 | 9 ft | 17 kts | 91° |
| 2026-04-28 10:15 | 61.34175 | 73.40262 | 9 ft | 17 kts | 88° |
| 2026-04-28 10:15 | 61.34179 | 73.40408 | 9 ft | 4 kts | 90° |
| 2026-04-28 10:15 | 61.34166 | 73.40447 | 9 ft | 3 kts | 159° |
| 2026-04-28 10:16 | 61.34144 | 73.40453 | 9 ft | 2 kts | 176° |
| 2026-04-28 10:16 | 61.34125 | 73.40455 | 9 ft | 2 kts | 178° |
| 2026-04-28 10:16 | 61.34121 | 73.40455 | 9 ft | 0 kts | 180° |